createdAt,value
2023-05-21T00:00:12.135Z,85.20
2023-05-21T00:01:19.075Z,85.80
2023-05-21T00:03:46.522Z,85.50
2023-05-21T00:07:02.599Z,85.10
2023-05-21T00:11:25.554Z,86.20
2023-05-21T00:12:35.878Z,86.10
2023-05-21T00:13:42.635Z,86.10
2023-05-21T00:15:53.581Z,86.10
2023-05-21T00:16:57.782Z,86.20
2023-05-21T00:18:00.421Z,86.20
2023-05-21T00:20:15.301Z,86.10
2023-05-21T00:21:26.501Z,87.50
2023-05-21T00:22:31.715Z,87.80
2023-05-21T00:23:42.263Z,87.00
2023-05-21T00:24:49.243Z,88.10
2023-05-21T00:25:55.138Z,86.90
2023-05-21T00:27:01.406Z,87.00
2023-05-21T00:29:17.250Z,87.20
2023-05-21T00:30:23.230Z,87.70
2023-05-21T00:31:31.116Z,87.00
2023-05-21T00:32:43.020Z,87.20
2023-05-21T00:33:51.610Z,87.00
2023-05-21T00:34:55.144Z,86.60
2023-05-21T00:36:14.564Z,86.90
2023-05-21T00:37:19.169Z,86.60
2023-05-21T00:38:23.969Z,86.40
2023-05-21T00:40:34.726Z,89.00
2023-05-21T00:41:38.580Z,87.10
2023-05-21T00:42:47.992Z,86.80
2023-05-21T00:44:10.120Z,87.20
2023-05-21T00:45:14.878Z,87.90
2023-05-21T00:46:22.334Z,88.30
2023-05-21T00:47:27.112Z,88.30
2023-05-21T00:48:35.150Z,87.30
2023-05-21T00:49:43.694Z,87.50
2023-05-21T00:50:53.383Z,87.50
2023-05-21T00:51:57.768Z,88.10
2023-05-21T00:53:00.448Z,86.60
2023-05-21T00:54:12.295Z,86.70
2023-05-21T00:55:16.215Z,86.50
2023-05-21T00:56:30.806Z,86.30
2023-05-21T00:57:37.834Z,86.80
2023-05-21T00:58:48.032Z,87.20
2023-05-21T00:59:56.179Z,86.50
2023-05-21T01:01:03.763Z,85.80
2023-05-21T01:02:15.238Z,86.00
2023-05-21T01:03:24.271Z,86.30
2023-05-21T01:04:34.877Z,86.10
2023-05-21T01:05:47.672Z,86.20
2023-05-21T01:06:58.749Z,86.10
2023-05-21T01:08:03.911Z,86.60
2023-05-21T01:09:10.677Z,86.80
2023-05-21T01:10:16.628Z,87.60
2023-05-21T01:11:24.367Z,87.40
2023-05-21T01:12:35.932Z,86.40
2023-05-21T01:13:47.796Z,86.40
2023-05-21T01:14:54.186Z,86.50
2023-05-21T01:15:59.856Z,86.60
2023-05-21T01:17:07.286Z,87.20
2023-05-21T01:18:16.300Z,89.30
2023-05-21T01:19:26.406Z,89.90
2023-05-21T01:20:32.608Z,90.00
2023-05-21T01:21:51.266Z,86.30
2023-05-21T01:24:08.445Z,85.40
2023-05-21T01:25:23.156Z,85.10
2023-05-21T01:26:31.584Z,85.10
2023-05-21T01:27:39.557Z,85.80
2023-05-21T01:28:47.129Z,86.40
2023-05-21T01:29:54.556Z,84.80
2023-05-21T01:32:50.592Z,84.80
2023-05-21T01:33:57.746Z,85.60
2023-05-21T01:35:10.254Z,84.50
2023-05-21T01:36:27.518Z,85.70
2023-05-21T01:37:43.963Z,84.50
2023-05-21T01:39:06.180Z,84.70
2023-05-21T01:40:23.754Z,86.50
2023-05-21T01:41:35.018Z,83.90
2023-05-21T01:42:46.899Z,84.30
2023-05-21T01:43:55.530Z,83.80
2023-05-21T01:45:07.227Z,84.70
2023-05-21T01:46:17.491Z,83.80
2023-05-21T01:47:28.055Z,85.50
2023-05-21T01:48:39.835Z,86.20
2023-05-21T01:49:43.772Z,83.80
2023-05-21T01:50:51.413Z,83.50
2023-05-21T01:51:59.505Z,83.70
2023-05-21T01:53:11.687Z,83.60
2023-05-21T01:54:16.073Z,84.50
2023-05-21T01:55:26.121Z,85.80
2023-05-21T01:57:40.582Z,83.90
2023-05-21T01:58:55.415Z,83.60
2023-05-21T02:00:07.662Z,83.40
2023-05-21T02:01:23.318Z,83.70
2023-05-21T02:02:31.987Z,84.00
2023-05-21T02:03:43.829Z,83.80
2023-05-21T02:05:00.305Z,83.80
2023-05-21T02:06:07.718Z,83.50
2023-05-21T02:07:14.724Z,84.00
2023-05-21T02:08:22.688Z,83.90
2023-05-21T02:09:35.296Z,82.30
2023-05-21T02:10:41.505Z,83.20
2023-05-21T02:11:47.749Z,83.50
2023-05-21T02:12:55.547Z,87.30
2023-05-21T02:14:08.269Z,83.20
2023-05-21T02:15:14.803Z,84.70
2023-05-21T02:16:22.588Z,81.60
2023-05-21T02:18:37.842Z,82.80
2023-05-21T02:19:42.969Z,82.70
2023-05-21T02:20:51.217Z,82.80
2023-05-21T02:23:00.122Z,82.50
2023-05-21T02:24:10.865Z,82.60
2023-05-21T02:25:22.539Z,83.40
2023-05-21T02:27:38.843Z,83.50
2023-05-21T02:28:43.173Z,84.10
2023-05-21T02:29:51.761Z,83.60
2023-05-21T02:31:01.258Z,83.10
2023-05-21T02:33:16.299Z,85.20
2023-05-21T02:37:45.664Z,82.70
2023-05-21T02:38:53.937Z,82.60
2023-05-21T02:39:57.607Z,85.40
2023-05-21T02:41:04.525Z,83.90
2023-05-21T02:42:09.834Z,84.50
2023-05-21T02:43:20.304Z,85.30
2023-05-21T02:44:24.988Z,84.60
2023-05-21T02:45:30.845Z,82.10
2023-05-21T02:46:34.839Z,83.80
2023-05-21T02:47:42.969Z,84.30
2023-05-21T02:48:50.797Z,82.60
2023-05-21T02:50:09.940Z,83.00
2023-05-21T02:51:22.053Z,82.50
2023-05-21T02:52:28.352Z,82.40
2023-05-21T02:53:37.368Z,82.20
2023-05-21T02:54:42.508Z,82.60
2023-05-21T02:55:53.208Z,82.80
2023-05-21T02:57:02.486Z,82.30
2023-05-21T02:58:07.200Z,82.50
2023-05-21T02:59:11.207Z,82.10
2023-05-21T03:00:24.984Z,83.60
2023-05-21T03:01:29.817Z,82.80
2023-05-21T03:02:42.515Z,83.10
2023-05-21T03:03:50.302Z,82.10
2023-05-21T03:05:00.706Z,80.80
2023-05-21T03:06:05.093Z,78.10
2023-05-21T03:07:10.218Z,79.60
2023-05-21T03:08:15.315Z,78.90
2023-05-21T03:09:21.379Z,78.50
2023-05-21T03:10:52.310Z,77.60
2023-05-21T08:30:19.889Z,49.30
2023-05-21T08:31:32.991Z,49.70
2023-05-21T08:32:35.741Z,49.80
2023-05-21T08:33:53.619Z,50.00
2023-05-21T08:35:11.332Z,49.60
2023-05-21T08:36:50.478Z,48.20
2023-05-21T08:38:11.547Z,48.90
2023-05-21T08:39:23.245Z,49.10
2023-05-21T08:40:30.963Z,49.20
2023-05-21T08:41:39.383Z,49.50
2023-05-21T08:42:47.245Z,48.90
2023-05-21T08:44:10.181Z,48.80
2023-05-21T08:45:18.538Z,48.20
2023-05-21T08:47:35.173Z,49.70
2023-05-21T08:48:43.995Z,50.40
2023-05-21T08:49:52.265Z,49.70
2023-05-21T08:51:08.336Z,49.20
2023-05-21T08:52:20.387Z,49.60
2023-05-21T08:53:35.622Z,49.50
2023-05-21T08:54:55.931Z,49.40
2023-05-21T08:56:11.405Z,49.60
2023-05-21T08:57:23.609Z,49.30
2023-05-21T08:58:31.574Z,49.10
2023-05-21T08:59:36.622Z,49.40
2023-05-21T09:00:51.945Z,49.60
2023-05-21T09:02:04.623Z,48.80
2023-05-21T09:03:18.562Z,49.30
2023-05-21T09:04:33.154Z,49.80
2023-05-21T09:05:44.440Z,49.60
2023-05-21T09:06:53.355Z,49.90
2023-05-21T09:08:21.934Z,50.60
2023-05-21T09:09:44.999Z,50.70
2023-05-21T09:10:52.871Z,50.40
2023-05-21T09:12:01.069Z,50.10
2023-05-21T09:13:09.967Z,50.40
2023-05-21T09:14:21.274Z,50.70
2023-05-21T09:15:36.605Z,51.20
2023-05-21T09:16:40.747Z,49.80
2023-05-21T09:17:48.045Z,49.80
2023-05-21T09:19:17.462Z,50.10
2023-05-21T09:20:28.755Z,50.20
2023-05-21T09:21:43.975Z,50.70
2023-05-21T09:22:52.827Z,50.50
2023-05-21T09:23:57.020Z,49.70
2023-05-21T09:25:10.273Z,50.10
2023-05-21T09:26:16.593Z,50.50
2023-05-21T09:27:22.956Z,50.20
2023-05-21T09:28:28.284Z,50.20
2023-05-21T09:29:36.460Z,49.70
2023-05-21T09:30:46.845Z,50.30
2023-05-21T09:31:57.410Z,50.50
2023-05-21T09:33:06.482Z,50.80
2023-05-21T09:34:12.545Z,50.60
2023-05-21T09:35:24.960Z,50.90
2023-05-21T09:36:34.909Z,51.50
2023-05-21T09:37:44.109Z,50.30
2023-05-21T09:38:48.451Z,50.20
2023-05-21T09:39:53.075Z,50.70
2023-05-21T09:40:56.790Z,50.90
2023-05-21T09:42:11.113Z,50.80
2023-05-21T09:43:16.850Z,50.30
2023-05-21T09:44:26.190Z,50.00
2023-05-21T09:45:36.869Z,50.10
2023-05-21T09:46:49.125Z,49.50
2023-05-21T09:47:57.366Z,49.80
2023-05-21T09:49:01.214Z,49.90
2023-05-21T09:50:12.877Z,50.00
2023-05-21T09:51:24.262Z,50.70
2023-05-21T09:52:31.706Z,49.60
2023-05-21T09:53:36.601Z,48.70
2023-05-21T09:54:45.497Z,48.50
2023-05-21T09:56:01.208Z,49.10
2023-05-21T09:57:09.670Z,47.90
2023-05-21T09:58:17.769Z,47.30
2023-05-21T09:59:35.869Z,47.50
2023-05-21T10:00:44.016Z,47.20
2023-05-21T10:01:51.990Z,47.90
2023-05-21T10:03:03.255Z,47.50
2023-05-21T10:04:21.147Z,47.70
2023-05-21T10:05:29.127Z,46.60
2023-05-21T10:06:37.195Z,47.20
2023-05-21T10:07:48.638Z,46.90
2023-05-21T10:08:56.777Z,47.70
2023-05-21T10:10:09.592Z,48.40
2023-05-21T10:11:16.881Z,48.50
2023-05-21T10:12:25.082Z,47.90
2023-05-21T10:13:37.113Z,47.20
2023-05-21T10:14:49.727Z,48.30
2023-05-21T10:16:03.026Z,47.50
2023-05-21T10:17:15.533Z,47.40
2023-05-21T10:18:25.753Z,48.60
2023-05-21T10:19:48.394Z,48.20
2023-05-21T10:20:57.988Z,47.80
2023-05-21T10:22:13.572Z,48.50
2023-05-21T10:23:29.212Z,47.90
2023-05-21T10:24:41.057Z,48.20
2023-05-21T10:25:44.602Z,48.00
2023-05-21T10:26:59.651Z,47.10
2023-05-21T10:28:11.028Z,46.70
2023-05-21T10:29:24.863Z,46.80
2023-05-21T10:30:37.221Z,46.40
2023-05-21T10:31:50.002Z,46.50
2023-05-21T10:33:01.175Z,46.80
2023-05-21T10:34:11.014Z,45.60
2023-05-21T10:35:20.545Z,46.10
2023-05-21T10:36:24.876Z,46.00
2023-05-21T10:37:36.801Z,46.80
2023-05-21T10:38:40.863Z,47.30
2023-05-21T10:39:49.294Z,47.60
2023-05-21T10:41:00.453Z,47.70
2023-05-21T10:42:21.300Z,47.80
2023-05-21T10:43:48.764Z,47.20
2023-05-21T10:45:20.558Z,47.90
2023-05-21T10:47:01.322Z,48.20
2023-05-21T10:48:29.849Z,46.70
2023-05-21T10:49:52.909Z,46.60
2023-05-21T10:51:25.797Z,47.20
2023-05-21T10:52:52.460Z,46.50
2023-05-21T10:54:44.804Z,48.30
2023-05-21T10:56:20.958Z,48.10
2023-05-21T10:57:56.423Z,47.00
2023-05-21T10:59:24.987Z,47.70
2023-05-21T11:00:28.580Z,47.00
2023-05-21T11:01:37.651Z,46.40
2023-05-21T11:02:49.169Z,46.70
2023-05-21T11:04:00.782Z,46.50
2023-05-21T11:05:09.366Z,46.90
2023-05-21T11:06:32.998Z,45.80
2023-05-21T11:07:57.421Z,45.90
2023-05-21T11:09:08.269Z,47.50
2023-05-21T11:10:44.624Z,47.80
2023-05-21T11:11:56.730Z,47.40
2023-05-21T11:13:08.494Z,46.90
2023-05-21T11:14:44.300Z,46.60
2023-05-21T11:16:15.994Z,46.30
2023-05-21T11:17:44.610Z,47.00
2023-05-21T11:19:21.230Z,46.90
2023-05-21T11:20:36.824Z,47.00
2023-05-21T11:21:44.522Z,47.80
2023-05-21T11:22:49.354Z,47.10
2023-05-21T11:23:55.661Z,47.20
2023-05-21T11:25:12.665Z,47.10
2023-05-21T11:26:24.775Z,46.90
2023-05-21T11:27:41.346Z,46.90
2023-05-21T11:28:46.976Z,47.50
2023-05-21T11:29:51.074Z,47.00
2023-05-21T11:31:27.116Z,47.40
2023-05-21T11:32:36.649Z,47.50
2023-05-21T11:33:43.065Z,46.70
2023-05-21T11:34:51.594Z,46.90
2023-05-21T11:36:08.132Z,46.70
2023-05-21T11:37:33.301Z,46.30
2023-05-21T11:38:41.203Z,46.40
2023-05-21T11:39:52.878Z,46.00
2023-05-21T11:41:01.706Z,47.30
2023-05-21T11:42:13.435Z,46.30
2023-05-21T11:43:21.624Z,47.20
2023-05-21T11:44:49.798Z,46.50
2023-05-21T11:46:07.986Z,46.60
2023-05-21T11:47:17.737Z,46.40
2023-05-21T11:48:40.446Z,46.90
2023-05-21T11:49:47.426Z,48.60
2023-05-21T11:50:53.538Z,47.20
2023-05-21T11:52:00.253Z,46.70
2023-05-21T11:53:17.064Z,46.90
2023-05-21T11:54:26.929Z,46.20
2023-05-21T11:55:32.733Z,46.60
2023-05-21T11:56:41.950Z,47.40
2023-05-21T11:57:48.206Z,47.10
2023-05-21T11:58:51.989Z,46.20
2023-05-21T12:00:00.684Z,46.30
2023-05-21T12:01:05.790Z,45.70
2023-05-21T12:02:16.762Z,46.70
2023-05-21T12:03:29.180Z,46.90
2023-05-21T12:04:33.145Z,46.20
2023-05-21T12:05:57.291Z,46.00
2023-05-21T12:07:12.984Z,46.00
2023-05-21T12:08:25.924Z,46.00
2023-05-21T12:09:31.142Z,46.90
2023-05-21T12:10:36.745Z,47.60
2023-05-21T12:11:44.836Z,46.60
2023-05-21T12:12:57.257Z,47.10
2023-05-21T12:14:06.491Z,46.70
2023-05-21T12:15:15.196Z,47.00
2023-05-21T12:16:17.759Z,46.80
2023-05-21T12:17:32.271Z,47.20
2023-05-21T12:18:36.428Z,47.70
2023-05-21T12:19:45.536Z,48.00
2023-05-21T12:20:53.540Z,47.50
2023-05-21T12:22:01.794Z,47.40
2023-05-21T12:23:13.714Z,47.00
2023-05-21T12:24:25.743Z,46.90
2023-05-21T12:25:32.798Z,47.20
2023-05-21T12:26:39.553Z,47.80
2023-05-21T12:27:49.290Z,48.00
2023-05-21T12:28:55.363Z,48.50
2023-05-21T12:30:00.743Z,47.40
2023-05-21T12:31:09.192Z,48.20
2023-05-21T12:32:17.244Z,47.20
2023-05-21T12:33:25.358Z,47.20
2023-05-21T12:34:43.790Z,46.70
2023-05-21T12:35:48.619Z,46.70
2023-05-21T12:36:54.999Z,47.40
2023-05-21T12:37:59.175Z,46.50
2023-05-21T12:39:01.851Z,46.80
2023-05-21T12:40:12.099Z,46.50
2023-05-21T12:41:17.021Z,46.60
2023-05-21T12:42:37.187Z,46.40
2023-05-21T12:43:44.680Z,46.70
2023-05-21T12:44:53.677Z,46.70
2023-05-21T12:45:59.920Z,48.90
2023-05-21T12:47:07.886Z,47.30
2023-05-21T12:48:16.310Z,47.50
2023-05-21T12:49:34.911Z,46.10
2023-05-21T12:50:44.430Z,45.80
2023-05-21T12:51:50.715Z,45.80
2023-05-21T12:53:00.228Z,46.10
2023-05-21T12:54:02.810Z,46.70
2023-05-21T12:55:16.198Z,46.60
2023-05-21T12:56:21.032Z,46.30
2023-05-21T12:57:44.099Z,46.70
2023-05-21T12:58:51.844Z,47.00
2023-05-21T13:00:01.913Z,46.30
2023-05-21T13:01:08.518Z,44.70
2023-05-21T13:02:19.821Z,45.70
2023-05-21T13:03:29.591Z,45.80
2023-05-21T13:04:37.076Z,46.20
2023-05-21T13:05:44.588Z,46.00
2023-05-21T13:06:47.526Z,46.50
2023-05-21T13:07:53.638Z,46.60
2023-05-21T13:09:06.410Z,46.40
2023-05-21T13:10:12.443Z,46.50
2023-05-21T13:12:24.840Z,46.80
2023-05-21T13:13:30.614Z,47.60
2023-05-21T13:14:36.573Z,47.30
2023-05-21T13:15:44.155Z,46.80
2023-05-21T13:16:53.431Z,46.50
2023-05-21T13:18:01.813Z,46.00
2023-05-21T13:19:09.173Z,46.50
2023-05-21T13:20:15.852Z,46.20
2023-05-21T13:21:28.848Z,46.90
2023-05-21T13:22:32.727Z,47.70
2023-05-21T13:23:40.703Z,47.80
2023-05-21T13:24:48.402Z,46.50
2023-05-21T13:25:52.076Z,45.30
2023-05-21T13:28:07.047Z,47.70
2023-05-21T13:29:12.647Z,45.30
2023-05-21T13:30:16.747Z,43.90
2023-05-21T13:31:20.631Z,45.70
2023-05-21T13:32:26.011Z,46.60
2023-05-21T13:33:33.559Z,46.40
2023-05-21T13:34:42.817Z,45.30
2023-05-21T13:35:45.825Z,46.00
2023-05-21T13:36:53.901Z,46.20
2023-05-21T13:38:13.267Z,44.60
2023-05-21T13:39:27.062Z,44.80
2023-05-21T13:40:29.574Z,45.10
2023-05-21T13:41:42.624Z,45.20
2023-05-21T13:42:54.338Z,44.10
2023-05-21T13:44:11.451Z,44.50
2023-05-21T13:45:18.027Z,44.30
2023-05-21T13:46:28.587Z,44.40
2023-05-21T13:47:48.167Z,45.00
2023-05-21T13:48:57.475Z,44.90
2023-05-21T13:50:12.344Z,44.80
2023-05-21T13:51:30.863Z,44.20
2023-05-21T13:52:44.205Z,44.10
2023-05-21T13:53:52.134Z,44.40
2023-05-21T13:55:01.347Z,45.20
2023-05-21T13:56:08.105Z,45.80
2023-05-21T13:59:25.383Z,43.80
2023-05-21T14:00:32.373Z,43.50
2023-05-21T14:01:34.895Z,43.40
2023-05-21T14:03:43.458Z,43.80
2023-05-21T14:04:47.073Z,44.00
2023-05-21T14:06:01.713Z,43.80
2023-05-21T14:07:08.912Z,43.10
2023-05-21T14:08:16.683Z,44.20
2023-05-21T14:09:24.441Z,44.00
2023-05-21T14:10:31.308Z,44.30
2023-05-21T14:11:36.883Z,44.20
2023-05-21T14:17:20.992Z,43.40
2023-05-21T14:18:28.021Z,43.70
2023-05-21T14:19:32.948Z,43.90
2023-05-21T14:21:41.931Z,42.80
2023-05-21T14:22:53.190Z,42.70
2023-05-21T14:24:00.726Z,42.90
2023-05-21T14:25:09.031Z,42.70
2023-05-21T14:26:15.372Z,43.00
2023-05-21T14:27:17.823Z,43.50
2023-05-21T14:30:41.831Z,42.50
2023-05-21T14:31:48.133Z,42.80
2023-05-21T14:33:59.429Z,42.90
2023-05-21T14:35:12.119Z,42.40
2023-05-21T14:37:20.540Z,42.30
2023-05-21T14:40:32.329Z,42.10
2023-05-21T14:41:38.500Z,42.90
2023-05-21T14:42:44.125Z,42.30
2023-05-21T14:43:48.561Z,42.20
2023-05-21T14:44:56.020Z,42.30
2023-05-21T14:45:58.712Z,42.70
2023-05-21T14:47:02.405Z,42.90
2023-05-21T14:48:13.074Z,42.80
2023-05-21T14:50:20.189Z,42.20
2023-05-21T14:52:33.428Z,42.70
2023-05-21T14:53:40.900Z,42.90
2023-05-21T14:59:15.347Z,43.10
2023-05-21T15:01:30.778Z,43.30
2023-05-21T15:02:39.534Z,43.80
2023-05-21T15:09:23.561Z,42.80
2023-05-21T15:10:32.007Z,42.80
2023-05-21T15:12:45.299Z,42.30
2023-05-21T15:13:52.783Z,44.70
2023-05-21T15:16:18.792Z,43.30
2023-05-21T15:17:24.642Z,42.80
2023-05-21T15:30:57.764Z,42.40
2023-05-21T15:32:08.400Z,42.10
2023-05-21T15:34:18.170Z,42.50
2023-05-21T15:35:28.097Z,42.70
2023-05-21T15:36:32.679Z,42.50
2023-05-21T15:37:38.062Z,42.60
2023-05-21T15:38:49.695Z,41.90
2023-05-21T15:41:04.308Z,42.30
2023-05-21T15:55:56.756Z,41.40
2023-05-21T16:00:23.573Z,41.80
2023-05-21T16:01:28.519Z,41.90
2023-05-21T16:10:37.652Z,41.70
2023-05-21T16:14:01.472Z,41.50
2023-05-21T16:16:23.781Z,42.30
2023-05-21T16:18:36.446Z,41.40
2023-05-21T16:22:05.534Z,42.10
2023-05-21T16:24:17.729Z,41.80
2023-05-21T16:25:27.864Z,42.00
2023-05-21T16:26:32.811Z,41.70
2023-05-21T16:27:40.931Z,41.60
2023-05-21T16:28:44.078Z,41.70
2023-05-21T16:30:53.430Z,41.70
2023-05-21T16:32:00.669Z,41.80
2023-05-21T16:33:05.155Z,42.30
2023-05-21T16:34:09.196Z,42.40
2023-05-21T16:35:21.241Z,42.10
2023-05-21T16:36:28.562Z,42.80
2023-05-21T16:37:42.017Z,42.80
2023-05-21T16:41:24.954Z,42.90
2023-05-21T16:42:31.631Z,43.50
2023-05-21T16:43:36.618Z,43.40
2023-05-21T16:44:40.146Z,43.80
2023-05-21T16:45:49.468Z,43.40
2023-05-21T16:46:56.870Z,44.00
2023-05-21T16:48:06.816Z,43.50
2023-05-21T16:51:32.161Z,43.30
2023-05-21T16:52:37.400Z,43.90
2023-05-21T16:53:48.899Z,44.00
2023-05-21T16:54:59.694Z,44.00
2023-05-21T16:56:12.859Z,43.90
2023-05-21T16:57:21.324Z,44.00
2023-05-21T16:58:32.503Z,44.20
2023-05-21T17:00:43.908Z,44.60
2023-05-21T17:01:48.629Z,44.90
2023-05-21T17:02:53.993Z,45.00
2023-05-21T17:03:59.453Z,44.60
2023-05-21T17:05:05.071Z,44.60
2023-05-21T17:06:12.043Z,44.40
2023-05-21T17:07:16.199Z,44.80
2023-05-21T17:08:21.071Z,45.20
2023-05-21T17:09:25.407Z,44.80
2023-05-21T17:10:36.404Z,44.80
2023-05-21T17:11:44.948Z,45.20
2023-05-21T17:12:51.439Z,45.20
2023-05-21T17:13:55.207Z,43.80
2023-05-21T17:14:58.916Z,45.80
2023-05-21T17:16:01.539Z,45.40
2023-05-21T17:17:11.915Z,45.50
2023-05-21T17:18:14.537Z,45.50
2023-05-21T17:19:18.981Z,45.90
2023-05-21T17:20:21.915Z,45.40
2023-05-21T17:21:36.147Z,45.90
2023-05-21T17:22:40.746Z,45.80
2023-05-21T17:23:45.869Z,45.80
2023-05-21T17:24:53.134Z,45.60
2023-05-21T17:26:09.337Z,45.60
2023-05-21T17:27:17.156Z,46.20
2023-05-21T17:29:27.681Z,45.70
2023-05-21T17:30:34.548Z,46.10
2023-05-21T17:31:40.702Z,45.90
2023-05-21T17:32:44.411Z,46.30
2023-05-21T17:33:51.935Z,46.00
2023-05-21T17:34:57.236Z,46.40
2023-05-21T17:36:10.454Z,46.20
2023-05-21T17:37:15.771Z,46.60
2023-05-21T17:38:23.861Z,46.70
2023-05-21T17:39:28.188Z,45.60
2023-05-21T17:41:31.364Z,45.70
2023-05-21T17:42:37.680Z,45.80
2023-05-21T17:43:45.159Z,45.80
2023-05-21T17:44:53.391Z,45.90
2023-05-21T17:46:01.588Z,46.50
2023-05-21T17:48:24.311Z,46.80
2023-05-21T17:49:32.553Z,46.00
2023-05-21T17:50:41.175Z,48.70
2023-05-21T17:51:51.873Z,46.40
2023-05-21T17:53:06.776Z,46.40
2023-05-21T17:54:09.582Z,46.50
2023-05-21T17:55:14.837Z,47.10
2023-05-21T17:56:20.494Z,46.90
2023-05-21T17:57:29.032Z,47.30
2023-05-21T17:58:35.209Z,47.00
2023-05-21T17:59:45.233Z,47.00
2023-05-21T18:00:56.178Z,47.20
2023-05-21T18:02:08.664Z,47.10
2023-05-21T18:04:17.191Z,49.50
2023-05-21T18:05:25.226Z,48.30
2023-05-21T18:06:31.925Z,48.10
2023-05-21T18:07:41.120Z,48.00
2023-05-21T18:08:50.713Z,47.10
2023-05-21T18:09:54.916Z,47.20
2023-05-21T18:10:59.883Z,47.50
2023-05-21T18:12:16.226Z,47.90
2023-05-21T18:13:20.456Z,47.30
2023-05-21T18:14:28.303Z,47.40
2023-05-21T18:16:45.024Z,47.70
2023-05-21T18:17:48.961Z,48.30
2023-05-21T18:18:56.150Z,48.20
2023-05-21T18:20:08.015Z,47.50
2023-05-21T18:21:20.301Z,47.70
2023-05-21T18:22:26.623Z,47.90
2023-05-21T18:23:32.106Z,47.20
2023-05-21T18:24:40.494Z,47.30
2023-05-21T18:25:48.915Z,47.40
2023-05-21T18:26:56.852Z,47.70
2023-05-21T18:28:04.967Z,47.60
2023-05-21T18:30:24.600Z,47.90
2023-05-21T18:32:41.492Z,48.00
2023-05-21T18:33:48.884Z,48.30
2023-05-21T18:34:56.312Z,48.60
2023-05-21T18:36:02.787Z,48.00
2023-05-21T18:37:15.520Z,47.90
2023-05-21T18:38:32.150Z,48.20
2023-05-21T18:39:41.002Z,47.60
2023-05-21T18:40:46.163Z,49.10
2023-05-21T18:41:53.634Z,46.90
2023-05-21T18:43:11.519Z,49.20
2023-05-21T18:44:16.805Z,49.00
2023-05-21T18:45:24.943Z,49.50
2023-05-21T18:46:31.821Z,49.00
2023-05-21T18:47:39.896Z,48.70
2023-05-21T18:48:46.458Z,48.00
2023-05-21T18:49:49.384Z,47.90
2023-05-21T18:50:56.846Z,48.60
2023-05-21T18:52:08.112Z,49.00
2023-05-21T18:53:12.150Z,49.40
2023-05-21T18:54:20.629Z,49.90
2023-05-21T18:55:33.302Z,49.20
2023-05-21T18:57:08.261Z,48.40
2023-05-21T18:59:27.305Z,48.30
2023-05-21T19:00:37.072Z,48.80
2023-05-21T19:01:43.864Z,48.90
2023-05-21T19:02:54.288Z,48.40
2023-05-21T19:04:01.624Z,49.40
2023-05-21T19:05:16.933Z,49.30
2023-05-21T19:06:28.107Z,48.50
2023-05-21T19:08:52.996Z,48.50
2023-05-21T19:10:00.397Z,49.40
2023-05-21T19:11:08.994Z,48.90
2023-05-21T19:12:15.295Z,49.30
2023-05-21T19:13:28.567Z,49.30
2023-05-21T19:14:38.939Z,49.60
2023-05-21T19:16:55.962Z,50.00
2023-05-21T19:18:00.528Z,50.70
2023-05-21T19:19:07.746Z,49.80
2023-05-21T19:20:13.332Z,50.20
2023-05-21T19:21:20.729Z,49.90
2023-05-21T19:22:27.838Z,50.50
2023-05-21T19:23:41.354Z,50.20
2023-05-21T19:26:04.851Z,50.70
2023-05-21T19:27:12.388Z,50.10
2023-05-21T19:28:17.822Z,50.30
2023-05-21T19:29:28.897Z,50.80
2023-05-21T19:30:41.203Z,50.40
2023-05-21T19:31:56.155Z,50.40
2023-05-21T19:33:24.463Z,49.30
2023-05-21T19:34:31.129Z,50.80
2023-05-21T19:35:40.585Z,50.90
2023-05-21T19:36:53.498Z,50.20
2023-05-21T19:38:09.808Z,50.90
2023-05-21T19:39:20.095Z,50.90
2023-05-21T19:40:25.786Z,51.20
2023-05-21T19:41:39.879Z,51.90
2023-05-21T19:42:46.059Z,50.60
2023-05-21T19:43:57.174Z,50.70
2023-05-21T19:45:06.219Z,51.10
2023-05-21T19:46:13.073Z,50.00
2023-05-21T19:47:17.445Z,51.20
2023-05-21T19:48:28.387Z,51.10
2023-05-21T19:49:34.014Z,51.30
2023-05-21T19:50:39.580Z,51.40
2023-05-21T19:53:00.956Z,51.70
2023-05-21T19:55:15.582Z,51.80
2023-05-21T19:57:30.140Z,51.80
2023-05-21T19:58:35.376Z,52.30
2023-05-21T19:59:41.634Z,52.30
2023-05-21T20:00:48.655Z,52.60
2023-05-21T20:01:52.740Z,52.40
2023-05-21T20:02:56.934Z,52.30
2023-05-21T20:04:00.941Z,50.90
2023-05-21T20:05:08.900Z,52.60
2023-05-21T20:06:13.059Z,52.70
2023-05-21T20:07:25.681Z,52.50
2023-05-21T20:08:36.916Z,52.80
2023-05-21T20:09:45.824Z,52.70
2023-05-21T20:11:56.759Z,52.80
2023-05-21T20:14:12.797Z,52.90
2023-05-21T20:16:23.580Z,53.70
2023-05-21T20:17:28.628Z,53.40
2023-05-21T20:19:40.523Z,53.60
2023-05-21T20:20:48.996Z,53.70
2023-05-21T20:21:57.905Z,53.80
2023-05-21T20:24:14.093Z,53.90
2023-05-21T20:25:20.295Z,54.80
2023-05-21T20:26:29.264Z,54.80
2023-05-21T20:27:41.106Z,54.50
2023-05-21T20:29:56.900Z,54.90
2023-05-21T20:31:01.316Z,54.00
2023-05-21T20:33:21.388Z,55.30
2023-05-21T20:34:29.829Z,55.20
2023-05-21T20:35:42.128Z,55.30
2023-05-21T20:36:49.875Z,55.30
2023-05-21T20:37:54.138Z,57.20
2023-05-21T20:39:05.395Z,56.70
2023-05-21T20:40:13.392Z,56.60
2023-05-21T20:41:21.154Z,55.70
2023-05-21T20:43:39.818Z,55.60
2023-05-21T20:44:45.285Z,55.90
2023-05-21T20:46:12.939Z,55.20
2023-05-21T20:47:24.473Z,55.20
2023-05-21T20:48:37.088Z,55.00
2023-05-21T20:49:43.635Z,55.00
2023-05-21T20:52:12.951Z,55.00
2023-05-21T20:53:25.087Z,55.00
2023-05-21T20:54:33.823Z,55.20
2023-05-21T20:55:44.559Z,55.10
2023-05-21T20:56:53.430Z,55.30
2023-05-21T20:58:00.020Z,55.40
2023-05-21T20:59:05.715Z,55.30
2023-05-21T21:00:17.365Z,55.80
2023-05-21T21:01:21.658Z,55.50
2023-05-21T21:02:36.293Z,55.60
2023-05-21T21:03:41.430Z,55.60
2023-05-21T21:04:52.455Z,55.60
2023-05-21T21:06:01.205Z,55.80
2023-05-21T21:07:17.466Z,55.80
2023-05-21T21:08:25.165Z,55.80
2023-05-21T21:09:32.278Z,55.70
2023-05-21T21:10:40.395Z,55.80
2023-05-21T21:11:47.399Z,55.80
2023-05-21T21:12:52.410Z,55.70
2023-05-21T21:13:56.932Z,54.90
2023-05-21T21:15:08.576Z,55.90
2023-05-21T21:16:15.769Z,56.60
2023-05-21T21:18:33.754Z,56.10
2023-05-21T21:19:42.127Z,56.50
2023-05-21T21:20:49.985Z,57.80
2023-05-21T21:22:00.664Z,57.30
2023-05-21T21:23:05.584Z,56.70
2023-05-21T21:24:10.115Z,56.70
2023-05-21T21:25:16.152Z,56.70
2023-05-21T21:26:20.039Z,56.70
2023-05-21T21:28:36.299Z,56.90
2023-05-21T21:29:41.502Z,57.70
2023-05-21T21:30:53.977Z,57.30
2023-05-21T21:32:01.793Z,57.10
2023-05-21T21:33:13.942Z,57.20
2023-05-21T21:34:25.201Z,57.20
2023-05-21T21:35:29.136Z,57.60
2023-05-21T21:36:39.435Z,57.30
2023-05-21T21:37:42.018Z,57.40
2023-05-21T21:38:48.926Z,57.50
2023-05-21T21:39:58.200Z,57.50
2023-05-21T21:41:02.857Z,56.50
2023-05-21T21:42:21.680Z,57.70
2023-05-21T21:43:32.548Z,57.80
2023-05-21T21:44:39.647Z,57.90
2023-05-21T21:45:45.772Z,58.00
2023-05-21T21:47:54.145Z,57.90
2023-05-21T21:49:08.715Z,58.10
2023-05-21T21:50:13.185Z,58.30
2023-05-21T21:51:23.416Z,58.40
2023-05-21T21:52:28.314Z,58.50
2023-05-21T21:53:35.512Z,58.40
2023-05-21T21:54:38.190Z,58.50
2023-05-21T21:55:44.818Z,58.50
2023-05-21T21:56:47.852Z,58.40
2023-05-21T21:57:53.123Z,58.50
2023-05-21T22:00:13.187Z,58.20
2023-05-21T22:01:24.963Z,58.40
2023-05-21T22:02:35.116Z,58.40
2023-05-21T22:03:41.963Z,58.40
2023-05-21T22:04:50.158Z,58.80
2023-05-21T22:05:57.827Z,58.40
2023-05-21T22:07:09.778Z,58.40
2023-05-21T22:08:16.807Z,58.50
2023-05-21T22:09:23.754Z,58.90
2023-05-21T22:10:30.026Z,58.60
2023-05-21T22:11:40.056Z,58.90
2023-05-21T22:12:44.779Z,58.60
2023-05-21T22:13:48.133Z,58.60
2023-05-21T22:14:57.580Z,56.60
2023-05-21T22:16:07.565Z,58.80
2023-05-21T22:17:10.397Z,58.80
2023-05-21T22:18:28.281Z,58.90
2023-05-21T22:19:45.522Z,59.20
2023-05-21T22:20:52.647Z,59.50
2023-05-21T22:22:04.879Z,59.50
2023-05-21T22:23:07.710Z,59.60
2023-05-21T22:24:30.340Z,59.70
2023-05-21T22:25:35.388Z,59.60
2023-05-21T22:26:38.086Z,59.60
2023-05-21T22:27:53.257Z,59.70
2023-05-21T22:30:08.420Z,59.80
2023-05-21T22:31:14.583Z,60.40
2023-05-21T22:32:19.733Z,59.90
2023-05-21T22:33:25.247Z,60.10
2023-05-21T22:34:37.017Z,60.10
2023-05-21T22:35:41.807Z,60.90
2023-05-21T22:36:48.258Z,60.20
2023-05-21T22:38:05.536Z,60.30